首页
METAR-TAF:

METAR-TAF

机场 :

Rochester International Airport

羅徹斯特, 明尼蘇達州, 美国

纬度: 43-54-15N, 经度: 092-29-30W, 海拔: 401米

当前天气观测

该预报发布于20分钟前的04:54 UTC
风速16节,风向,有时为27节阵风
温度 27°C
湿度 79%
气压 1002 hPa
能見度: 16.1公里
天空无云

METAR: KRST 250454Z 18016G27KT 10SM CLR 27/23 A2959 RMK AO2 PK WND 18028/0408 SLP010 T02670228

时间: 00:14 (05:14 UTC)

预报

该预报发布于1小时和49分钟前的03:25 UTC
预报有效从25日的 03点(UTC)到 25日的 24点(UTC)
风速15节,风向南转南东,有时为26节阵风
能見度: 10公里
散云层高于4500英尺
多云层高于8000英尺, 积雨云.
小阵雨, 附近有雷暴
从 25日的 0700点(UTC)
风速14节,风向南转西南,有时为22节阵风
能見度: 10公里
多云层高于12000英尺
从 25日的 1200点(UTC)
风速9节,风向西北
能見度: 10公里
散云层高于4500英尺

TAF: KRST 250325Z 2503/2524 15015G26KT P6SM -SHRA VCTS SCT045 BKN080CB FM250700 21014G22KT P6SM BKN120 FM251200 31009KT P6SM SCT045

超过4000个机场的气象观测和天气预报(METAR&TAF报告)。

可查询的气象台以黄色和红色小点在地图上表示。

将鼠标移到小点上方,可查看气象台名称。

然后点击查看天气观测和预报。

如需切换地图:点击带黑十字的绿色按钮放大地图;点击带横线的绿色按钮缩小地图;或者点击绿色箭头查看邻近地区的地图。


METAR-TAF: